Chadstone Weather > Observations for 18/10/20

Select Day:



Observations
Time Temp Hum DP Wind Gust Dir Rain >9am Press
C % C kph kph mm hPa
00:00 13.0 77 9.1 3.8 18.4 SSW 0.0 1020.6
00:10 13.0 77 9.1 3.9 15.8 S 0.0 1020.8
00:20 13.0 77 9.1 4.5 22.0 WSW 0.0 1020.9
00:30 13.0 76 8.9 3.2 13.3 SW 0.0 1020.9
00:40 13.0 77 9.1 4.3 13.3 SW 0.0 1020.9
00:50 13.0 77 9.1 4.2 13.3 WSW 0.0 1020.7
01:00 12.8 79 9.3 3.6 12.2 SE 0.0 1020.5
01:10 12.8 81 9.6 4.2 13.3 SSW 0.0 1020.4
01:20 12.8 81 9.6 3.0 12.2 E 0.0 1020.3
01:30 12.7 82 9.7 3.6 12.2 S 0.0 1020.3
01:40 12.6 82 9.6 3.4 13.3 SE 0.0 1020.3
01:50 12.6 82 9.6 3.8 12.2 S 0.0 1020.3
02:00 12.6 82 9.6 2.7 13.3 SW 0.0 1020.2
02:10 12.6 82 9.6 4.4 13.3 S 0.0 1020.2
02:20 12.6 82 9.6 4.0 13.3 S 0.0 1020.2
02:30 12.5 81 9.3 5.5 15.8 S 0.0 1020.3
02:40 12.3 82 9.3 5.2 13.3 SW 0.0 1020.3
02:50 12.2 82 9.2 4.0 12.2 S 0.0 1020.4
03:00 12.2 82 9.2 3.8 13.3 S 0.0 1020.4
03:10 12.2 80 8.9 3.3 11.2 SW 0.0 1020.4
03:20 12.2 79 8.7 4.3 15.8 SSW 0.0 1020.4
03:30 12.1 78 8.4 3.7 20.9 SW 0.0 1020.5
03:40 12.1 77 8.2 3.9 15.8 S 0.0 1020.5
03:50 12.1 77 8.2 1.5 8.6 SSW 0.0 1020.4
04:00 12.1 76 8.0 5.5 22.0 S 0.0 1020.4
04:10 12.1 75 7.8 4.1 15.8 S 0.0 1020.5
04:20 12.1 76 8.0 2.7 11.2 S 0.0 1020.6
04:30 12.0 76 7.9 3.6 14.8 SSE 0.0 1020.8
04:40 11.5 81 8.4 2.1 14.8 S 0.0 1020.8
04:50 11.3 84 8.7 6.3 19.4 S 0.0 1020.7
05:00 11.2 85 8.8 4.0 13.3 SSE 0.0 1020.7
05:10 11.1 86 8.8 4.1 15.8 SSW 0.0 1020.8
05:20 11.2 85 8.8 2.6 12.2 SSE 0.0 1020.7
05:30 11.3 83 8.5 4.1 17.3 S 0.0 1020.9
05:40 11.5 81 8.4 3.4 13.3 S 0.0 1021.1
05:50 11.5 80 8.2 2.8 13.3 SSW 0.0 1021.2
06:00 11.5 79 8.0 1.2 11.2 SSW 0.0 1021.1
06:10 11.5 78 7.8 1.9 8.6 SSW 0.0 1021.3
06:20 11.5 76 7.4 2.9 14.8 SW 0.0 1021.4
06:30 11.6 75 7.3 1.8 9.7 S 0.0 1021.6
06:40 11.6 75 7.3 3.6 12.2 S 0.0 1021.7
06:50 11.6 75 7.3 4.0 11.2 SSE 0.0 1021.9
07:00 11.5 75 7.2 3.5 11.2 SSE 0.0 1022.0
07:10 11.6 74 7.1 2.5 9.7 S 0.0 1022.2
07:20 11.5 74 7.0 3.4 12.2 SSW 0.0 1022.4
07:30 11.6 74 7.1 3.0 12.2 SSE 0.0 1022.4
07:40 11.7 74 7.2 2.8 12.2 S 0.0 1022.5
07:50 11.8 73 7.1 1.8 12.2 SSW 0.0 1022.6
08:00 11.9 72 7.0 2.9 9.7 S 0.0 1022.7
08:10 11.9 69 6.4 4.0 18.4 S 0.0 1023.0
08:20 12.0 68 6.3 4.9 15.8 SSE 0.0 1023.1
08:30 12.0 67 6.1 5.1 14.8 SSE 0.0 1023.0
08:40 12.0 67 6.1 2.7 13.3 S 0.0 1023.2
08:50 12.0 67 6.1 3.8 17.3 ESE 0.0 1023.3
09:00 12.1 68 6.4 3.4 15.8 SSW 0.0 1023.4
09:10 12.0 66 5.8 7.1 22.0 SSW 0.0 1023.5
09:20 12.1 66 5.9 5.9 22.0 S 0.0 1023.6
09:30 12.2 66 6.0 3.9 12.2 SSW 0.0 1023.8
09:40 12.3 65 5.9 7.0 14.8 SSE 0.0 1023.7
09:50 12.4 63 5.6 8.2 19.4 S 0.0 1023.7
10:00 12.5 63 5.7 4.7 18.4 SSW 0.0 1023.8
10:10 12.7 63 5.8 3.1 14.8 SSW 0.0 1023.9
10:20 12.9 61 5.6 4.6 14.8 SW 0.0 1024.0
10:30 12.9 59 5.1 4.9 14.8 SSW 0.0 1024.0
10:40 13.3 59 5.5 6.8 18.4 SSW 0.0 1024.1
10:50 13.4 57 5.1 7.1 25.6 SW 0.0 1024.2
11:00 13.4 57 5.1 4.0 13.3 SSW 0.0 1024.6
11:10 13.7 55 4.8 5.0 14.8 SW 0.0 1024.8
11:20 14.0 54 4.8 6.0 19.4 S 0.0 1024.9
11:30 13.7 56 5.1 6.0 18.4 SW 0.0 1025.0
11:40 13.5 57 5.2 4.6 19.4 SSW 0.0 1025.1
11:50 13.7 56 5.1 7.0 18.4 SSE 0.0 1024.9
12:00 13.9 55 5.0 6.3 18.4 SSW 0.0 1024.9
12:10 14.5 55 5.6 4.5 18.4 WSW 0.0 1024.8
12:20 14.2 56 5.6 3.9 12.2 S 0.0 1024.6
12:30 14.6 56 5.9 4.2 20.9 SW 0.0 1024.7
12:40 14.9 55 5.9 5.2 20.9 SSW 0.0 1024.6
12:50 15.1 54 5.9 3.9 12.2 E 0.0 1024.5
13:00 14.8 55 5.9 5.5 20.9 SW 0.0 1024.6
13:10 14.5 56 5.8 5.8 17.3 SW 0.0 1024.7
13:20 14.6 56 5.9 6.8 25.6 ESE 0.0 1024.7
13:30 14.5 57 6.1 4.9 22.0 SSE 0.0 1024.7
13:40 15.0 54 5.8 6.3 17.3 SSE 0.0 1024.6
13:50 15.0 53 5.5 5.2 14.8 SSW 0.0 1024.8
14:00 14.8 54 5.6 6.3 17.3 SSE 0.0 1024.9
14:10 15.0 51 5.0 8.0 20.9 S 0.0 1024.8
14:20 15.2 53 5.7 5.5 23.4 SE 0.0 1024.2
14:30 15.6 50 5.2 5.5 14.8 SSW 0.0 1023.8
14:40 15.5 49 4.8 9.8 24.5 SSE 0.0 1023.5
14:50 15.6 51 5.5 8.7 22.0 SSE 0.0 1023.3
15:00 15.3 53 5.8 5.5 15.8 SSW 0.0 1023.3
15:10 15.2 54 6.0 6.2 22.0 S 0.0 1023.2
15:20 15.2 54 6.0 4.6 12.2 SSW 0.0 1023.2
15:30 15.1 54 5.9 4.5 18.4 S 0.0 1023.0
15:40 15.4 53 5.9 3.8 20.9 WSW 0.0 1023.0
15:50 15.2 51 5.1 5.9 23.4 W 0.0 1022.9
16:00 15.4 49 4.7 8.0 19.4 SSW 0.0 1022.8
16:10 15.4 49 4.7 4.5 18.4 SW 0.0 1022.9
16:20 15.5 50 5.1 6.8 17.3 W 0.0 1022.9
16:30 15.7 52 5.9 3.8 18.4 SSE 0.0 1022.9
16:40 15.4 51 5.3 5.2 18.4 S 0.0 1023.1
16:50 15.3 54 6.1 4.3 13.3 S 0.0 1023.0
17:00 15.1 58 6.9 4.7 17.3 SSW 0.0 1023.1
17:10 14.4 65 7.9 5.9 15.8 S 0.0 1023.5
17:20 14.0 66 7.8 5.5 14.8 SSW 0.0 1023.9
17:30 13.9 66 7.7 4.3 12.2 S 0.0 1023.6
17:40 13.9 65 7.4 5.1 14.8 SSW 0.0 1023.7
17:50 14.1 65 7.6 3.2 12.2 SW 0.0 1023.7
18:00 14.1 67 8.1 6.7 18.4 SSE 0.0 1023.7
18:10 14.3 65 7.8 4.1 14.8 S 0.0 1023.7
18:20 14.3 65 7.8 1.9 13.3 WSW 0.0 1023.7
18:30 14.2 64 7.5 2.1 11.2 SSW 0.0 1023.5
18:40 13.9 64 7.2 2.1 9.7 SSE 0.0 1023.6
18:50 13.7 65 7.2 2.3 7.2 SW 0.0 1023.7
19:00 13.6 67 7.6 0.6 9.7 SSW 0.0 1023.7
19:10 13.5 69 7.9 1.4 9.7 SW 0.0 1023.8
19:20 13.4 69 7.8 3.1 12.2 SW 0.0 1023.8
19:30 13.3 69 7.7 2.8 9.7 SSW 0.0 1024.0
19:40 13.4 71 8.3 2.5 12.2 S 0.0 1023.8
19:50 13.1 71 8.0 4.1 14.8 S 0.0 1023.9
20:00 13.0 71 7.9 2.8 9.7 ESE 0.0 1023.9
20:10 13.0 71 7.9 2.2 8.6 SSW 0.0 1023.8
20:20 13.0 71 7.9 0.7 8.6 SSE 0.0 1023.8
20:30 13.0 72 8.1 2.9 13.3 SSE 0.0 1023.8
20:40 13.0 73 8.3 3.0 12.2 SSE 0.0 1024.1
20:50 12.9 73 8.2 3.3 13.3 SSE 0.0 1024.2
21:00 12.9 72 8.0 2.5 12.2 SE 0.0 1024.2
21:10 12.9 71 7.8 2.8 12.2 SSE 0.0 1024.3
21:20 12.9 70 7.6 5.5 15.8 SSE 0.0 1024.3
21:30 12.9 70 7.6 1.5 11.2 SSW 0.0 1024.8
21:40 12.9 70 7.6 2.2 7.2 SSE 0.0 1025.0
21:50 12.8 69 7.3 3.2 8.6 S 0.0 1025.0
22:00 12.8 68 7.0 2.3 8.6 SSE 0.0 1025.3
22:10 12.8 68 7.0 0.4 6.1 S 0.0 1025.5
22:20 12.8 68 7.0 0.8 6.1 SW 0.0 1025.7
22:30 12.7 69 7.2 0.8 6.1 SSW 0.0 1025.7
22:40 12.8 70 7.5 2.7 8.6 S 0.0 1025.9
22:50 12.8 71 7.7 0.3 3.6 ESE 0.0 1025.9
23:00 12.8 72 7.9 0.8 8.6 SE 0.0 1026.1
23:10 12.7 72 7.8 3.1 8.6 SE 0.0 1026.0
23:20 12.8 72 7.9 1.6 6.1 SE 0.0 1026.2
23:30 12.8 72 7.9 0.1 3.6 SSE 0.0 1026.2
23:40 12.7 72 7.8 0.6 3.6 SSE 0.0 1026.2
23:50 12.6 72 7.7 0.6 5.0 SSE 0.0 1026.4